Platzwetter Flugplatz Wels

Flugwetter Linz LOWL

[Quelle: ADDS]
METAR
LOWL 041150Z AUTO 29008KT 250V320 9999 FEW050 27/18 Q1019 NOSIG =
LOWL 041115Z 0412/0512 28009KT CAVOK TX27/0413Z TN18/0503Z TEMPO 0412/0418 SCT050 FEW050CB PROB40 TEMPO 0413/0417 17010KT TSRA TEMPO 0500/0506 SHRA BKN030 FEW030CB PROB30 TEMPO 0500/0512 4000 TSRA FEW008 SCT015 BKN020 SCT020CB
TAF
LOWL 041115Z 0412/0512 28009KT CAVOK TX27/0413Z TN18/0503Z TEMPO 0412/0418 SCT050 FEW050CB PROB40 TEMPO 0413/0417 17010KT TSRA TEMPO 0500/0506 SHRA BKN030 FEW030CB PROB30 TEMPO 0500/0512 4000 TSRA FEW008 SCT015 BKN020 SCT020CB =

Flugwetter Salzburg LOWS

[Quelle: ADDS]
METAR
LOWS 041150Z 33010KT 9999 -SHRA FEW040 BKN100 23/17 Q1020 NOSIG =
LOWS 041115Z 0412/0512 32009KT 9999 FEW040 BKN120 TX25/0412Z TN17/0504Z PROB40 TEMPO 0414/0420 TSRA FEW030 FEW040CB BKN070 TEMPO 0420/0501 25015G25KT 4000 TSRA SCT030 SCT040CB BKN060 TEMPO 0501/0509 15007KT SHRA FEW020 FEW020CB BKN040
TAF
LOWS 041115Z 0412/0512 32009KT 9999 FEW040 BKN120 TX25/0412Z TN17/0504Z PROB40 TEMPO 0414/0420 TSRA FEW030 FEW040CB BKN070 TEMPO 0420/0501 25015G25KT 4000 TSRA SCT030 SCT040CB BKN060 TEMPO 0501/0509 15007KT SHRA FEW020 FEW020CB BKN040 =

Wind - Verlauf

Windrichtung - Verlauf

Temperatur - Verlauf

Relative Luftfeuchtigkeit - Verlauf

Luftdruck - Verlauf

Wir benutzen Cookies

Wir nutzen Cookies auf unserer Website. Einige von ihnen sind essenziell für den Betrieb der Seite, während andere uns helfen, diese Website und die Nutzererfahrung zu verbessern (Tracking Cookies). Sie können selbst entscheiden, ob Sie die Cookies zulassen möchten. Bitte beachten Sie, dass bei einer Ablehnung womöglich nicht mehr alle Funktionalitäten der Seite zur Verfügung stehen.